sensor_id;sensor_type;location;lat;lon;timestamp;temperature;humidity
44855;DHT22;30591;48.228;16.398;2023-04-29T00:01:32;11.50;99.90
44855;DHT22;30591;48.228;16.398;2023-04-29T00:03:59;11.50;99.90
44855;DHT22;30591;48.228;16.398;2023-04-29T00:06:27;11.50;99.90
44855;DHT22;30591;48.228;16.398;2023-04-29T00:08:55;11.50;99.90
44855;DHT22;30591;48.228;16.398;2023-04-29T00:11:22;11.40;99.90
44855;DHT22;30591;48.228;16.398;2023-04-29T00:13:49;11.40;99.90
44855;DHT22;30591;48.228;16.398;2023-04-29T00:16:16;11.40;99.90
44855;DHT22;30591;48.228;16.398;2023-04-29T00:18:45;11.40;99.90
44855;DHT22;30591;48.228;16.398;2023-04-29T00:21:12;11.40;99.90
44855;DHT22;30591;48.228;16.398;2023-04-29T00:23:40;11.40;99.90
44855;DHT22;30591;48.228;16.398;2023-04-29T00:26:07;11.40;99.90
44855;DHT22;30591;48.228;16.398;2023-04-29T00:28:35;11.40;99.90
44855;DHT22;30591;48.228;16.398;2023-04-29T00:31:02;11.30;99.90
44855;DHT22;30591;48.228;16.398;2023-04-29T00:33:30;11.40;99.90
44855;DHT22;30591;48.228;16.398;2023-04-29T00:35:57;11.40;99.90
44855;DHT22;30591;48.228;16.398;2023-04-29T00:38:24;11.30;99.90
44855;DHT22;30591;48.228;16.398;2023-04-29T00:40:52;11.30;99.90
44855;DHT22;30591;48.228;16.398;2023-04-29T00:43:20;11.40;99.90
44855;DHT22;30591;48.228;16.398;2023-04-29T00:45:48;11.40;99.90
44855;DHT22;30591;48.228;16.398;2023-04-29T00:48:17;11.40;99.90
44855;DHT22;30591;48.228;16.398;2023-04-29T00:50:44;11.40;99.90
44855;DHT22;30591;48.228;16.398;2023-04-29T00:53:12;11.40;99.90
44855;DHT22;30591;48.228;16.398;2023-04-29T00:55:41;11.30;99.90
44855;DHT22;30591;48.228;16.398;2023-04-29T00:58:10;11.30;99.90
44855;DHT22;30591;48.228;16.398;2023-04-29T01:00:38;11.30;99.90
44855;DHT22;30591;48.228;16.398;2023-04-29T01:03:08;11.30;99.90
44855;DHT22;30591;48.228;16.398;2023-04-29T01:05:36;11.20;99.90
44855;DHT22;30591;48.228;16.398;2023-04-29T01:08:21;11.30;99.90
44855;DHT22;30591;48.228;16.398;2023-04-29T01:11:07;11.20;99.90
44855;DHT22;30591;48.228;16.398;2023-04-29T01:13:49;11.30;99.90
44855;DHT22;30591;48.228;16.398;2023-04-29T01:16:22;11.20;99.90
44855;DHT22;30591;48.228;16.398;2023-04-29T01:18:57;11.30;99.90
44855;DHT22;30591;48.228;16.398;2023-04-29T01:21:47;11.30;99.90
44855;DHT22;30591;48.228;16.398;2023-04-29T01:24:15;11.30;99.90
44855;DHT22;30591;48.228;16.398;2023-04-29T01:26:50;11.30;99.90
44855;DHT22;30591;48.228;16.398;2023-04-29T01:33:05;11.30;99.90
44855;DHT22;30591;48.228;16.398;2023-04-29T01:38:36;11.30;99.90
44855;DHT22;30591;48.228;16.398;2023-04-29T01:41:13;11.30;99.90
44855;DHT22;30591;48.228;16.398;2023-04-29T01:43:47;11.30;99.90
44855;DHT22;30591;48.228;16.398;2023-04-29T01:46:20;11.20;99.90
44855;DHT22;30591;48.228;16.398;2023-04-29T01:48:52;11.30;99.90
44855;DHT22;30591;48.228;16.398;2023-04-29T01:51:20;11.20;99.90
44855;DHT22;30591;48.228;16.398;2023-04-29T01:53:48;11.20;99.90
44855;DHT22;30591;48.228;16.398;2023-04-29T01:56:17;11.20;99.90
44855;DHT22;30591;48.228;16.398;2023-04-29T01:59:04;11.30;99.90
44855;DHT22;30591;48.228;16.398;2023-04-29T02:01:50;11.20;99.90
44855;DHT22;30591;48.228;16.398;2023-04-29T02:04:18;11.20;99.90
44855;DHT22;30591;48.228;16.398;2023-04-29T02:06:45;11.20;99.90
44855;DHT22;30591;48.228;16.398;2023-04-29T02:09:16;11.20;99.90
44855;DHT22;30591;48.228;16.398;2023-04-29T02:11:49;11.20;99.90
44855;DHT22;30591;48.228;16.398;2023-04-29T02:14:17;11.30;99.90
44855;DHT22;30591;48.228;16.398;2023-04-29T02:16:44;11.30;99.90
44855;DHT22;30591;48.228;16.398;2023-04-29T02:19:13;11.30;99.90
44855;DHT22;30591;48.228;16.398;2023-04-29T02:21:41;11.30;99.90
44855;DHT22;30591;48.228;16.398;2023-04-29T02:24:09;11.30;99.90
44855;DHT22;30591;48.228;16.398;2023-04-29T02:26:36;11.30;99.90
44855;DHT22;30591;48.228;16.398;2023-04-29T02:29:04;11.30;99.90
44855;DHT22;30591;48.228;16.398;2023-04-29T02:31:32;11.30;99.90
44855;DHT22;30591;48.228;16.398;2023-04-29T02:33:59;11.30;99.90
44855;DHT22;30591;48.228;16.398;2023-04-29T02:36:26;11.30;99.90
44855;DHT22;30591;48.228;16.398;2023-04-29T02:38:54;11.20;99.90
44855;DHT22;30591;48.228;16.398;2023-04-29T02:41:22;11.30;99.90
44855;DHT22;30591;48.228;16.398;2023-04-29T02:43:49;11.30;99.90
44855;DHT22;30591;48.228;16.398;2023-04-29T02:46:17;11.20;99.90
44855;DHT22;30591;48.228;16.398;2023-04-29T02:48:45;11.20;99.90
44855;DHT22;30591;48.228;16.398;2023-04-29T02:51:14;11.30;99.90
44855;DHT22;30591;48.228;16.398;2023-04-29T02:53:41;11.20;99.90
44855;DHT22;30591;48.228;16.398;2023-04-29T02:56:08;11.20;99.90
44855;DHT22;30591;48.228;16.398;2023-04-29T02:58:36;11.20;99.90
44855;DHT22;30591;48.228;16.398;2023-04-29T03:01:03;11.20;99.90
44855;DHT22;30591;48.228;16.398;2023-04-29T03:03:31;11.20;99.90
44855;DHT22;30591;48.228;16.398;2023-04-29T03:05:58;11.20;99.90
44855;DHT22;30591;48.228;16.398;2023-04-29T03:08:26;11.20;99.90
44855;DHT22;30591;48.228;16.398;2023-04-29T03:10:55;11.20;99.90
44855;DHT22;30591;48.228;16.398;2023-04-29T03:13:22;11.20;99.90
44855;DHT22;30591;48.228;16.398;2023-04-29T03:15:50;11.20;99.90
44855;DHT22;30591;48.228;16.398;2023-04-29T03:18:17;11.20;99.90
44855;DHT22;30591;48.228;16.398;2023-04-29T03:20:44;11.20;99.90
44855;DHT22;30591;48.228;16.398;2023-04-29T03:23:14;11.20;99.90
44855;DHT22;30591;48.228;16.398;2023-04-29T03:25:41;11.20;99.90
44855;DHT22;30591;48.228;16.398;2023-04-29T03:28:09;11.20;99.90
44855;DHT22;30591;48.228;16.398;2023-04-29T03:30:37;11.20;99.90
44855;DHT22;30591;48.228;16.398;2023-04-29T03:33:04;11.20;99.90
44855;DHT22;30591;48.228;16.398;2023-04-29T03:35:31;11.20;99.90
44855;DHT22;30591;48.228;16.398;2023-04-29T03:38:17;11.20;99.90
44855;DHT22;30591;48.228;16.398;2023-04-29T03:40:46;11.20;99.90
44855;DHT22;30591;48.228;16.398;2023-04-29T03:43:15;11.20;99.90
44855;DHT22;30591;48.228;16.398;2023-04-29T03:45:42;11.20;99.90
44855;DHT22;30591;48.228;16.398;2023-04-29T03:48:15;11.20;99.90
44855;DHT22;30591;48.228;16.398;2023-04-29T03:50:43;11.20;99.90
44855;DHT22;30591;48.228;16.398;2023-04-29T03:53:11;11.20;99.90
44855;DHT22;30591;48.228;16.398;2023-04-29T03:55:38;11.20;99.90
44855;DHT22;30591;48.228;16.398;2023-04-29T03:58:06;11.20;99.90
44855;DHT22;30591;48.228;16.398;2023-04-29T04:00:34;11.10;99.90
44855;DHT22;30591;48.228;16.398;2023-04-29T04:03:06;11.10;99.90
44855;DHT22;30591;48.228;16.398;2023-04-29T04:05:36;11.00;99.90
44855;DHT22;30591;48.228;16.398;2023-04-29T04:08:08;11.00;99.90
44855;DHT22;30591;48.228;16.398;2023-04-29T04:10:36;11.00;99.90
44855;DHT22;30591;48.228;16.398;2023-04-29T04:13:12;11.00;99.90
44855;DHT22;30591;48.228;16.398;2023-04-29T04:15:42;11.00;99.90
44855;DHT22;30591;48.228;16.398;2023-04-29T04:18:15;11.00;99.90
44855;DHT22;30591;48.228;16.398;2023-04-29T04:20:43;11.00;99.90
44855;DHT22;30591;48.228;16.398;2023-04-29T04:23:12;10.90;99.90
44855;DHT22;30591;48.228;16.398;2023-04-29T04:25:47;10.90;99.90
44855;DHT22;30591;48.228;16.398;2023-04-29T04:28:41;11.00;99.90
44855;DHT22;30591;48.228;16.398;2023-04-29T04:31:12;10.90;99.90
44855;DHT22;30591;48.228;16.398;2023-04-29T04:33:44;10.90;99.90
44855;DHT22;30591;48.228;16.398;2023-04-29T04:36:12;11.00;99.90
44855;DHT22;30591;48.228;16.398;2023-04-29T04:38:40;10.90;99.90
44855;DHT22;30591;48.228;16.398;2023-04-29T04:41:11;10.90;99.90
44855;DHT22;30591;48.228;16.398;2023-04-29T04:43:42;10.90;99.90
44855;DHT22;30591;48.228;16.398;2023-04-29T04:46:17;10.90;99.90
44855;DHT22;30591;48.228;16.398;2023-04-29T04:48:55;10.90;99.90
44855;DHT22;30591;48.228;16.398;2023-04-29T04:51:22;10.90;99.90
44855;DHT22;30591;48.228;16.398;2023-04-29T04:53:51;10.90;99.90
44855;DHT22;30591;48.228;16.398;2023-04-29T04:56:20;10.90;99.90
44855;DHT22;30591;48.228;16.398;2023-04-29T04:58:49;10.90;99.90
44855;DHT22;30591;48.228;16.398;2023-04-29T05:01:16;10.90;99.90
44855;DHT22;30591;48.228;16.398;2023-04-29T05:03:44;10.90;99.90
44855;DHT22;30591;48.228;16.398;2023-04-29T05:06:11;10.90;99.90
44855;DHT22;30591;48.228;16.398;2023-04-29T05:08:42;10.90;99.90
44855;DHT22;30591;48.228;16.398;2023-04-29T05:11:16;11.00;99.90
44855;DHT22;30591;48.228;16.398;2023-04-29T05:13:51;11.00;99.90
44855;DHT22;30591;48.228;16.398;2023-04-29T05:16:18;11.00;99.90
44855;DHT22;30591;48.228;16.398;2023-04-29T05:18:47;10.90;99.90
44855;DHT22;30591;48.228;16.398;2023-04-29T05:21:15;10.90;99.90
44855;DHT22;30591;48.228;16.398;2023-04-29T05:23:44;11.00;99.90
44855;DHT22;30591;48.228;16.398;2023-04-29T05:26:11;11.00;99.90
44855;DHT22;30591;48.228;16.398;2023-04-29T05:28:39;11.00;99.90
44855;DHT22;30591;48.228;16.398;2023-04-29T05:31:08;11.00;99.90
44855;DHT22;30591;48.228;16.398;2023-04-29T05:33:36;11.00;99.90
44855;DHT22;30591;48.228;16.398;2023-04-29T05:36:03;11.10;99.90
44855;DHT22;30591;48.228;16.398;2023-04-29T05:38:31;11.00;99.90
44855;DHT22;30591;48.228;16.398;2023-04-29T05:41:04;11.10;99.90
44855;DHT22;30591;48.228;16.398;2023-04-29T05:43:51;11.10;99.90
44855;DHT22;30591;48.228;16.398;2023-04-29T05:46:18;11.20;99.90
44855;DHT22;30591;48.228;16.398;2023-04-29T05:48:48;11.30;99.90
44855;DHT22;30591;48.228;16.398;2023-04-29T05:51:16;11.40;99.90
44855;DHT22;30591;48.228;16.398;2023-04-29T05:53:43;11.30;99.90
44855;DHT22;30591;48.228;16.398;2023-04-29T05:56:11;11.40;99.90
44855;DHT22;30591;48.228;16.398;2023-04-29T05:58:40;11.50;99.90
44855;DHT22;30591;48.228;16.398;2023-04-29T06:01:09;11.30;99.90
44855;DHT22;30591;48.228;16.398;2023-04-29T06:03:36;11.50;99.90
44855;DHT22;30591;48.228;16.398;2023-04-29T06:06:24;11.70;99.90
44855;DHT22;30591;48.228;16.398;2023-04-29T06:09:01;11.80;99.90
44855;DHT22;30591;48.228;16.398;2023-04-29T06:11:32;11.80;99.90
44855;DHT22;30591;48.228;16.398;2023-04-29T06:14:01;11.80;99.90
44855;DHT22;30591;48.228;16.398;2023-04-29T06:16:28;11.60;99.90
44855;DHT22;30591;48.228;16.398;2023-04-29T06:18:56;11.60;99.90
44855;DHT22;30591;48.228;16.398;2023-04-29T06:21:23;11.60;99.90
44855;DHT22;30591;48.228;16.398;2023-04-29T06:23:50;11.70;99.90
44855;DHT22;30591;48.228;16.398;2023-04-29T06:26:20;11.80;99.90
44855;DHT22;30591;48.228;16.398;2023-04-29T06:28:47;12.10;99.90
44855;DHT22;30591;48.228;16.398;2023-04-29T06:31:15;12.40;99.90
44855;DHT22;30591;48.228;16.398;2023-04-29T06:33:43;12.80;99.90
44855;DHT22;30591;48.228;16.398;2023-04-29T06:36:10;13.20;99.90
44855;DHT22;30591;48.228;16.398;2023-04-29T06:38:57;13.20;99.90
44855;DHT22;30591;48.228;16.398;2023-04-29T06:41:33;13.20;99.90
44855;DHT22;30591;48.228;16.398;2023-04-29T06:44:19;13.00;99.90
44855;DHT22;30591;48.228;16.398;2023-04-29T06:47:10;12.80;99.90
44855;DHT22;30591;48.228;16.398;2023-04-29T06:50:07;12.80;99.90
44855;DHT22;30591;48.228;16.398;2023-04-29T06:52:35;12.70;99.90
44855;DHT22;30591;48.228;16.398;2023-04-29T06:55:03;12.70;99.90
44855;DHT22;30591;48.228;16.398;2023-04-29T06:57:30;12.80;99.90
44855;DHT22;30591;48.228;16.398;2023-04-29T06:59:58;12.80;99.90
44855;DHT22;30591;48.228;16.398;2023-04-29T07:02:25;12.90;99.90
44855;DHT22;30591;48.228;16.398;2023-04-29T07:04:52;13.00;99.90
44855;DHT22;30591;48.228;16.398;2023-04-29T07:07:20;13.00;99.90
44855;DHT22;30591;48.228;16.398;2023-04-29T07:09:48;13.00;99.90
44855;DHT22;30591;48.228;16.398;2023-04-29T07:12:19;13.10;99.90
44855;DHT22;30591;48.228;16.398;2023-04-29T07:14:46;13.10;99.90
44855;DHT22;30591;48.228;16.398;2023-04-29T07:17:14;13.30;99.90
44855;DHT22;30591;48.228;16.398;2023-04-29T07:19:41;13.00;99.90
44855;DHT22;30591;48.228;16.398;2023-04-29T07:22:09;13.20;99.90
44855;DHT22;30591;48.228;16.398;2023-04-29T07:24:37;13.20;99.90
44855;DHT22;30591;48.228;16.398;2023-04-29T07:27:05;13.30;99.90
44855;DHT22;30591;48.228;16.398;2023-04-29T07:29:35;13.50;99.90
44855;DHT22;30591;48.228;16.398;2023-04-29T07:32:03;13.50;99.90
44855;DHT22;30591;48.228;16.398;2023-04-29T07:34:34;13.30;99.90
44855;DHT22;30591;48.228;16.398;2023-04-29T07:37:02;13.60;99.90
44855;DHT22;30591;48.228;16.398;2023-04-29T07:39:29;13.60;99.90
44855;DHT22;30591;48.228;16.398;2023-04-29T07:41:57;13.80;99.90
44855;DHT22;30591;48.228;16.398;2023-04-29T07:44:26;13.80;99.90
44855;DHT22;30591;48.228;16.398;2023-04-29T07:46:53;14.10;99.90
44855;DHT22;30591;48.228;16.398;2023-04-29T07:49:20;14.30;99.90
44855;DHT22;30591;48.228;16.398;2023-04-29T07:51:48;14.80;99.90
44855;DHT22;30591;48.228;16.398;2023-04-29T07:54:16;15.20;99.90
44855;DHT22;30591;48.228;16.398;2023-04-29T07:56:45;15.30;99.90
44855;DHT22;30591;48.228;16.398;2023-04-29T07:59:13;15.50;99.90
44855;DHT22;30591;48.228;16.398;2023-04-29T08:01:41;15.30;99.90
44855;DHT22;30591;48.228;16.398;2023-04-29T08:04:08;15.00;99.90
44855;DHT22;30591;48.228;16.398;2023-04-29T08:06:46;15.40;99.90
44855;DHT22;30591;48.228;16.398;2023-04-29T08:09:15;15.50;99.90
44855;DHT22;30591;48.228;16.398;2023-04-29T08:11:42;15.10;99.90
44855;DHT22;30591;48.228;16.398;2023-04-29T08:14:12;15.00;99.90
44855;DHT22;30591;48.228;16.398;2023-04-29T08:16:39;14.80;99.90
44855;DHT22;30591;48.228;16.398;2023-04-29T08:19:07;15.00;99.90
44855;DHT22;30591;48.228;16.398;2023-04-29T08:21:34;15.40;99.90
44855;DHT22;30591;48.228;16.398;2023-04-29T08:24:01;15.20;99.90
44855;DHT22;30591;48.228;16.398;2023-04-29T08:26:28;15.00;99.90
44855;DHT22;30591;48.228;16.398;2023-04-29T08:28:56;15.20;99.90
44855;DHT22;30591;48.228;16.398;2023-04-29T08:31:23;15.10;99.90
44855;DHT22;30591;48.228;16.398;2023-04-29T08:33:52;15.30;99.90
44855;DHT22;30591;48.228;16.398;2023-04-29T08:36:19;15.00;99.90
44855;DHT22;30591;48.228;16.398;2023-04-29T08:38:46;15.50;99.90
44855;DHT22;30591;48.228;16.398;2023-04-29T08:41:14;15.90;99.90
44855;DHT22;30591;48.228;16.398;2023-04-29T08:43:43;15.80;99.90
44855;DHT22;30591;48.228;16.398;2023-04-29T08:46:11;15.50;99.90
44855;DHT22;30591;48.228;16.398;2023-04-29T08:48:39;15.40;99.90
44855;DHT22;30591;48.228;16.398;2023-04-29T08:51:11;15.30;99.90
44855;DHT22;30591;48.228;16.398;2023-04-29T08:53:39;15.60;99.90
44855;DHT22;30591;48.228;16.398;2023-04-29T08:56:16;16.30;99.90
44855;DHT22;30591;48.228;16.398;2023-04-29T08:58:49;16.70;99.90
44855;DHT22;30591;48.228;16.398;2023-04-29T09:01:22;16.80;99.90
44855;DHT22;30591;48.228;16.398;2023-04-29T09:06:42;16.90;99.90
44855;DHT22;30591;48.228;16.398;2023-04-29T09:09:10;17.30;99.90
44855;DHT22;30591;48.228;16.398;2023-04-29T09:11:40;17.60;99.90
44855;DHT22;30591;48.228;16.398;2023-04-29T09:14:07;17.40;99.90
44855;DHT22;30591;48.228;16.398;2023-04-29T09:16:35;17.00;99.90
44855;DHT22;30591;48.228;16.398;2023-04-29T09:19:04;16.80;99.90
44855;DHT22;30591;48.228;16.398;2023-04-29T09:21:32;16.10;99.90
44855;DHT22;30591;48.228;16.398;2023-04-29T09:24:01;15.90;99.90
44855;DHT22;30591;48.228;16.398;2023-04-29T09:26:40;15.50;99.90
44855;DHT22;30591;48.228;16.398;2023-04-29T09:31:38;15.50;99.90
44855;DHT22;30591;48.228;16.398;2023-04-29T09:34:06;15.20;99.90
44855;DHT22;30591;48.228;16.398;2023-04-29T09:36:47;15.00;99.90
44855;DHT22;30591;48.228;16.398;2023-04-29T09:39:15;14.90;99.90
44855;DHT22;30591;48.228;16.398;2023-04-29T09:44:32;14.40;99.90
44855;DHT22;30591;48.228;16.398;2023-04-29T09:47:06;14.40;99.90
44855;DHT22;30591;48.228;16.398;2023-04-29T09:49:40;14.30;99.90
44855;DHT22;30591;48.228;16.398;2023-04-29T09:52:12;14.20;99.90
44855;DHT22;30591;48.228;16.398;2023-04-29T09:54:42;14.30;99.90
44855;DHT22;30591;48.228;16.398;2023-04-29T09:57:11;14.50;99.90
44855;DHT22;30591;48.228;16.398;2023-04-29T09:59:42;14.50;99.90
44855;DHT22;30591;48.228;16.398;2023-04-29T10:02:17;14.80;99.90
44855;DHT22;30591;48.228;16.398;2023-04-29T10:04:47;15.20;99.90
44855;DHT22;30591;48.228;16.398;2023-04-29T10:07:20;15.50;99.90
44855;DHT22;30591;48.228;16.398;2023-04-29T10:09:48;15.40;99.90
44855;DHT22;30591;48.228;16.398;2023-04-29T10:12:18;15.50;99.90
44855;DHT22;30591;48.228;16.398;2023-04-29T10:18:08;14.90;99.90
44855;DHT22;30591;48.228;16.398;2023-04-29T10:20:46;14.60;99.90
44855;DHT22;30591;48.228;16.398;2023-04-29T10:23:14;14.60;99.90
44855;DHT22;30591;48.228;16.398;2023-04-29T10:25:44;14.50;99.90
44855;DHT22;30591;48.228;16.398;2023-04-29T10:28:14;14.60;99.90
44855;DHT22;30591;48.228;16.398;2023-04-29T10:30:44;15.00;99.90
44855;DHT22;30591;48.228;16.398;2023-04-29T10:33:15;15.50;99.90
44855;DHT22;30591;48.228;16.398;2023-04-29T10:35:43;15.50;99.90
44855;DHT22;30591;48.228;16.398;2023-04-29T10:38:36;15.30;99.90
44855;DHT22;30591;48.228;16.398;2023-04-29T10:41:19;15.00;99.90
44855;DHT22;30591;48.228;16.398;2023-04-29T10:43:51;15.10;99.90
44855;DHT22;30591;48.228;16.398;2023-04-29T10:46:21;15.10;99.90
44855;DHT22;30591;48.228;16.398;2023-04-29T10:48:55;15.00;99.90
44855;DHT22;30591;48.228;16.398;2023-04-29T10:51:29;15.00;99.90
44855;DHT22;30591;48.228;16.398;2023-04-29T10:56:46;16.60;99.90
44855;DHT22;30591;48.228;16.398;2023-04-29T11:01:59;18.40;99.90
44855;DHT22;30591;48.228;16.398;2023-04-29T11:04:26;18.30;99.90
44855;DHT22;30591;48.228;16.398;2023-04-29T11:06:55;17.30;99.90
44855;DHT22;30591;48.228;16.398;2023-04-29T11:09:29;17.90;99.90
44855;DHT22;30591;48.228;16.398;2023-04-29T11:12:01;18.50;99.90
44855;DHT22;30591;48.228;16.398;2023-04-29T11:17:12;17.20;99.90
44855;DHT22;30591;48.228;16.398;2023-04-29T11:19:50;17.20;99.90
44855;DHT22;30591;48.228;16.398;2023-04-29T11:24:56;16.30;99.90
44855;DHT22;30591;48.228;16.398;2023-04-29T11:27:26;16.10;99.90
44855;DHT22;30591;48.228;16.398;2023-04-29T11:29:54;15.80;99.90
44855;DHT22;30591;48.228;16.398;2023-04-29T11:32:27;15.60;99.90
44855;DHT22;30591;48.228;16.398;2023-04-29T11:37:35;15.50;99.90
44855;DHT22;30591;48.228;16.398;2023-04-29T11:40:03;15.40;99.90
44855;DHT22;30591;48.228;16.398;2023-04-29T11:42:34;15.30;99.90
44855;DHT22;30591;48.228;16.398;2023-04-29T11:45:02;15.20;99.90
44855;DHT22;30591;48.228;16.398;2023-04-29T11:47:30;15.30;99.90
44855;DHT22;30591;48.228;16.398;2023-04-29T11:50:05;15.60;99.90
44855;DHT22;30591;48.228;16.398;2023-04-29T11:52:40;16.90;99.90
44855;DHT22;30591;48.228;16.398;2023-04-29T11:55:11;16.10;99.90
44855;DHT22;30591;48.228;16.398;2023-04-29T11:57:38;15.90;99.90
44855;DHT22;30591;48.228;16.398;2023-04-29T12:00:10;15.80;99.90
44855;DHT22;30591;48.228;16.398;2023-04-29T12:02:43;15.60;99.90
44855;DHT22;30591;48.228;16.398;2023-04-29T12:05:11;15.60;99.90
44855;DHT22;30591;48.228;16.398;2023-04-29T12:07:39;15.60;99.90
44855;DHT22;30591;48.228;16.398;2023-04-29T12:10:08;15.50;99.90
44855;DHT22;30591;48.228;16.398;2023-04-29T12:12:39;15.70;99.90
44855;DHT22;30591;48.228;16.398;2023-04-29T12:15:10;16.30;99.90
44855;DHT22;30591;48.228;16.398;2023-04-29T12:17:39;17.20;99.90
44855;DHT22;30591;48.228;16.398;2023-04-29T12:20:08;17.10;99.90
44855;DHT22;30591;48.228;16.398;2023-04-29T12:22:37;17.10;99.90
44855;DHT22;30591;48.228;16.398;2023-04-29T12:25:06;16.90;99.90
44855;DHT22;30591;48.228;16.398;2023-04-29T12:27:39;18.00;99.90
44855;DHT22;30591;48.228;16.398;2023-04-29T12:30:09;19.50;99.90
44855;DHT22;30591;48.228;16.398;2023-04-29T12:32:37;20.20;99.90
44855;DHT22;30591;48.228;16.398;2023-04-29T12:35:04;19.70;99.90
44855;DHT22;30591;48.228;16.398;2023-04-29T12:37:33;19.00;99.90
44855;DHT22;30591;48.228;16.398;2023-04-29T12:40:01;18.30;99.90
44855;DHT22;30591;48.228;16.398;2023-04-29T12:42:32;18.00;99.90
44855;DHT22;30591;48.228;16.398;2023-04-29T12:45:02;18.20;99.90
44855;DHT22;30591;48.228;16.398;2023-04-29T12:47:33;17.40;99.90
44855;DHT22;30591;48.228;16.398;2023-04-29T12:50:05;17.10;99.90
44855;DHT22;30591;48.228;16.398;2023-04-29T12:52:33;16.70;99.90
44855;DHT22;30591;48.228;16.398;2023-04-29T12:55:03;16.50;99.90
44855;DHT22;30591;48.228;16.398;2023-04-29T12:57:30;16.30;99.90
44855;DHT22;30591;48.228;16.398;2023-04-29T12:59:58;16.30;99.90
44855;DHT22;30591;48.228;16.398;2023-04-29T13:02:25;16.30;99.90
44855;DHT22;30591;48.228;16.398;2023-04-29T13:04:54;16.60;99.90
44855;DHT22;30591;48.228;16.398;2023-04-29T13:07:22;16.80;99.90
44855;DHT22;30591;48.228;16.398;2023-04-29T13:09:49;17.10;99.90
44855;DHT22;30591;48.228;16.398;2023-04-29T13:12:17;17.30;99.90
44855;DHT22;30591;48.228;16.398;2023-04-29T13:14:44;17.80;99.90
44855;DHT22;30591;48.228;16.398;2023-04-29T13:17:11;18.00;99.90
44855;DHT22;30591;48.228;16.398;2023-04-29T13:19:39;18.10;99.90
44855;DHT22;30591;48.228;16.398;2023-04-29T13:22:18;18.00;99.90
44855;DHT22;30591;48.228;16.398;2023-04-29T13:24:45;17.80;99.90
44855;DHT22;30591;48.228;16.398;2023-04-29T13:27:13;20.90;99.90
44855;DHT22;30591;48.228;16.398;2023-04-29T13:29:40;21.10;99.90
44855;DHT22;30591;48.228;16.398;2023-04-29T13:32:08;18.90;99.90
44855;DHT22;30591;48.228;16.398;2023-04-29T13:34:35;17.50;99.90
44855;DHT22;30591;48.228;16.398;2023-04-29T13:37:03;16.70;99.90
44855;DHT22;30591;48.228;16.398;2023-04-29T13:39:30;16.70;99.90
44855;DHT22;30591;48.228;16.398;2023-04-29T13:41:57;16.60;99.90
44855;DHT22;30591;48.228;16.398;2023-04-29T13:44:25;16.50;99.90
44855;DHT22;30591;48.228;16.398;2023-04-29T13:47:05;16.40;99.90
44855;DHT22;30591;48.228;16.398;2023-04-29T13:49:33;16.30;99.90
44855;DHT22;30591;48.228;16.398;2023-04-29T13:52:21;16.20;99.90
44855;DHT22;30591;48.228;16.398;2023-04-29T13:54:51;16.40;99.90
44855;DHT22;30591;48.228;16.398;2023-04-29T13:57:22;18.70;99.90
44855;DHT22;30591;48.228;16.398;2023-04-29T13:59:52;17.80;99.90
44855;DHT22;30591;48.228;16.398;2023-04-29T14:02:21;17.40;99.90
44855;DHT22;30591;48.228;16.398;2023-04-29T14:04:52;18.70;99.90
44855;DHT22;30591;48.228;16.398;2023-04-29T14:07:20;17.90;99.90
44855;DHT22;30591;48.228;16.398;2023-04-29T14:09:48;17.20;99.90
44855;DHT22;30591;48.228;16.398;2023-04-29T14:12:15;17.00;99.90
44855;DHT22;30591;48.228;16.398;2023-04-29T14:14:43;17.00;99.90
44855;DHT22;30591;48.228;16.398;2023-04-29T14:17:12;17.10;99.90
44855;DHT22;30591;48.228;16.398;2023-04-29T14:19:41;17.60;99.90
44855;DHT22;30591;48.228;16.398;2023-04-29T14:22:08;18.20;99.90
44855;DHT22;30591;48.228;16.398;2023-04-29T14:24:35;22.00;99.90
44855;DHT22;30591;48.228;16.398;2023-04-29T14:27:03;23.80;99.90
44855;DHT22;30591;48.228;16.398;2023-04-29T14:29:30;22.90;99.90
44855;DHT22;30591;48.228;16.398;2023-04-29T14:31:57;23.20;99.90
44855;DHT22;30591;48.228;16.398;2023-04-29T14:34:24;25.20;99.90
44855;DHT22;30591;48.228;16.398;2023-04-29T14:36:52;25.90;99.90
44855;DHT22;30591;48.228;16.398;2023-04-29T14:39:19;22.70;99.90
44855;DHT22;30591;48.228;16.398;2023-04-29T14:41:47;19.20;99.90
44855;DHT22;30591;48.228;16.398;2023-04-29T14:44:15;17.80;99.90
44855;DHT22;30591;48.228;16.398;2023-04-29T14:46:42;17.20;99.90
44855;DHT22;30591;48.228;16.398;2023-04-29T14:49:09;16.90;99.90
44855;DHT22;30591;48.228;16.398;2023-04-29T14:51:37;16.70;99.90
44855;DHT22;30591;48.228;16.398;2023-04-29T14:54:04;16.50;99.90
44855;DHT22;30591;48.228;16.398;2023-04-29T14:56:31;16.20;99.90
44855;DHT22;30591;48.228;16.398;2023-04-29T14:58:59;15.90;99.90
44855;DHT22;30591;48.228;16.398;2023-04-29T15:01:26;15.70;99.90
44855;DHT22;30591;48.228;16.398;2023-04-29T15:03:57;15.50;99.90
44855;DHT22;30591;48.228;16.398;2023-04-29T15:06:25;15.30;99.90
44855;DHT22;30591;48.228;16.398;2023-04-29T15:08:53;15.30;99.90
44855;DHT22;30591;48.228;16.398;2023-04-29T15:11:21;15.10;99.90
44855;DHT22;30591;48.228;16.398;2023-04-29T15:13:50;15.10;99.90
44855;DHT22;30591;48.228;16.398;2023-04-29T15:16:17;15.00;99.90
44855;DHT22;30591;48.228;16.398;2023-04-29T15:18:45;14.90;99.90
44855;DHT22;30591;48.228;16.398;2023-04-29T15:21:13;14.80;99.90
44855;DHT22;30591;48.228;16.398;2023-04-29T15:23:40;14.80;99.90
44855;DHT22;30591;48.228;16.398;2023-04-29T15:26:07;14.70;99.90
44855;DHT22;30591;48.228;16.398;2023-04-29T15:28:34;14.70;99.90
44855;DHT22;30591;48.228;16.398;2023-04-29T15:31:02;14.60;99.90
44855;DHT22;30591;48.228;16.398;2023-04-29T15:33:31;14.70;99.90
44855;DHT22;30591;48.228;16.398;2023-04-29T15:35:59;14.90;99.90
44855;DHT22;30591;48.228;16.398;2023-04-29T15:38:26;14.90;99.90
44855;DHT22;30591;48.228;16.398;2023-04-29T15:40:57;15.00;99.90
44855;DHT22;30591;48.228;16.398;2023-04-29T15:43:27;15.00;99.90
44855;DHT22;30591;48.228;16.398;2023-04-29T15:45:55;14.90;99.90
44855;DHT22;30591;48.228;16.398;2023-04-29T15:48:22;14.90;99.90
44855;DHT22;30591;48.228;16.398;2023-04-29T15:50:50;15.00;99.90
44855;DHT22;30591;48.228;16.398;2023-04-29T15:53:19;15.20;99.90
44855;DHT22;30591;48.228;16.398;2023-04-29T15:55:47;15.30;99.90
44855;DHT22;30591;48.228;16.398;2023-04-29T15:58:15;15.50;99.90
44855;DHT22;30591;48.228;16.398;2023-04-29T16:00:42;15.20;99.90
44855;DHT22;30591;48.228;16.398;2023-04-29T16:03:09;15.10;99.90